sensor_id;sensor_type;location;lat;lon;timestamp;temperature;humidity
31975;DHT22;18500;43.618;1.474;2023-03-05T00:02:11;4.40;1.00
31975;DHT22;18500;43.618;1.474;2023-03-05T00:04:37;4.40;1.00
31975;DHT22;18500;43.618;1.474;2023-03-05T00:07:03;4.50;1.00
31975;DHT22;18500;43.618;1.474;2023-03-05T00:09:30;4.50;1.00
31975;DHT22;18500;43.618;1.474;2023-03-05T00:11:55;4.40;1.00
31975;DHT22;18500;43.618;1.474;2023-03-05T00:14:21;4.40;1.00
31975;DHT22;18500;43.618;1.474;2023-03-05T00:16:47;4.30;1.00
31975;DHT22;18500;43.618;1.474;2023-03-05T00:19:13;4.30;1.00
31975;DHT22;18500;43.618;1.474;2023-03-05T00:21:40;4.30;1.00
31975;DHT22;18500;43.618;1.474;2023-03-05T00:24:15;4.30;1.00
31975;DHT22;18500;43.618;1.474;2023-03-05T00:26:41;4.30;1.00
31975;DHT22;18500;43.618;1.474;2023-03-05T00:29:08;4.30;1.00
31975;DHT22;18500;43.618;1.474;2023-03-05T00:31:36;4.20;1.00
31975;DHT22;18500;43.618;1.474;2023-03-05T00:34:08;4.20;1.00
31975;DHT22;18500;43.618;1.474;2023-03-05T00:36:37;4.20;1.00
31975;DHT22;18500;43.618;1.474;2023-03-05T00:39:03;4.20;1.00
31975;DHT22;18500;43.618;1.474;2023-03-05T00:41:29;4.20;1.00
31975;DHT22;18500;43.618;1.474;2023-03-05T00:43:55;4.10;1.00
31975;DHT22;18500;43.618;1.474;2023-03-05T00:46:20;4.10;1.00
31975;DHT22;18500;43.618;1.474;2023-03-05T00:48:47;4.10;1.00
31975;DHT22;18500;43.618;1.474;2023-03-05T00:51:13;4.00;1.00
31975;DHT22;18500;43.618;1.474;2023-03-05T00:53:38;4.00;1.00
31975;DHT22;18500;43.618;1.474;2023-03-05T00:56:04;4.00;1.00
31975;DHT22;18500;43.618;1.474;2023-03-05T00:58:30;4.00;1.00
31975;DHT22;18500;43.618;1.474;2023-03-05T01:00:57;3.90;1.00
31975;DHT22;18500;43.618;1.474;2023-03-05T01:03:24;3.90;1.00
31975;DHT22;18500;43.618;1.474;2023-03-05T01:05:50;3.90;1.00
31975;DHT22;18500;43.618;1.474;2023-03-05T01:08:16;3.80;1.00
31975;DHT22;18500;43.618;1.474;2023-03-05T01:10:42;3.70;1.00
31975;DHT22;18500;43.618;1.474;2023-03-05T01:13:07;3.80;1.00
31975;DHT22;18500;43.618;1.474;2023-03-05T01:15:33;3.80;1.00
31975;DHT22;18500;43.618;1.474;2023-03-05T01:17:59;3.90;1.00
31975;DHT22;18500;43.618;1.474;2023-03-05T01:20:24;3.80;1.00
31975;DHT22;18500;43.618;1.474;2023-03-05T01:22:50;3.80;1.00
31975;DHT22;18500;43.618;1.474;2023-03-05T01:25:16;3.80;1.00
31975;DHT22;18500;43.618;1.474;2023-03-05T01:27:42;3.70;1.00
31975;DHT22;18500;43.618;1.474;2023-03-05T01:30:08;3.50;1.00
31975;DHT22;18500;43.618;1.474;2023-03-05T01:32:35;3.40;1.00
31975;DHT22;18500;43.618;1.474;2023-03-05T01:35:02;3.40;1.00
31975;DHT22;18500;43.618;1.474;2023-03-05T01:37:28;3.30;1.00
31975;DHT22;18500;43.618;1.474;2023-03-05T01:39:54;3.20;1.00
31975;DHT22;18500;43.618;1.474;2023-03-05T01:42:20;3.10;1.00
31975;DHT22;18500;43.618;1.474;2023-03-05T01:47:31;3.30;1.00
31975;DHT22;18500;43.618;1.474;2023-03-05T01:49:57;3.40;1.00
31975;DHT22;18500;43.618;1.474;2023-03-05T01:52:24;3.30;1.00
31975;DHT22;18500;43.618;1.474;2023-03-05T01:55:04;3.50;1.00
31975;DHT22;18500;43.618;1.474;2023-03-05T01:57:31;3.30;1.00
31975;DHT22;18500;43.618;1.474;2023-03-05T02:00:09;3.00;1.00
31975;DHT22;18500;43.618;1.474;2023-03-05T02:02:35;3.20;1.00
31975;DHT22;18500;43.618;1.474;2023-03-05T02:05:04;3.20;1.00
31975;DHT22;18500;43.618;1.474;2023-03-05T02:07:31;3.30;1.00
31975;DHT22;18500;43.618;1.474;2023-03-05T02:09:58;3.30;1.00
31975;DHT22;18500;43.618;1.474;2023-03-05T02:12:24;3.30;1.00
31975;DHT22;18500;43.618;1.474;2023-03-05T02:14:51;3.20;1.00
31975;DHT22;18500;43.618;1.474;2023-03-05T02:17:27;3.10;1.00
31975;DHT22;18500;43.618;1.474;2023-03-05T02:19:57;3.10;1.00
31975;DHT22;18500;43.618;1.474;2023-03-05T02:22:26;3.20;1.00
31975;DHT22;18500;43.618;1.474;2023-03-05T02:24:52;3.20;1.00
31975;DHT22;18500;43.618;1.474;2023-03-05T02:27:21;3.10;1.00
31975;DHT22;18500;43.618;1.474;2023-03-05T02:29:48;3.20;1.00
31975;DHT22;18500;43.618;1.474;2023-03-05T02:32:14;3.10;1.00
31975;DHT22;18500;43.618;1.474;2023-03-05T02:34:40;3.10;1.00
31975;DHT22;18500;43.618;1.474;2023-03-05T02:37:06;3.00;1.00
31975;DHT22;18500;43.618;1.474;2023-03-05T02:39:33;2.90;1.00
31975;DHT22;18500;43.618;1.474;2023-03-05T02:41:59;2.80;1.00
31975;DHT22;18500;43.618;1.474;2023-03-05T02:44:25;2.70;1.00
31975;DHT22;18500;43.618;1.474;2023-03-05T02:46:51;2.60;1.00
31975;DHT22;18500;43.618;1.474;2023-03-05T02:49:17;2.60;1.00
31975;DHT22;18500;43.618;1.474;2023-03-05T02:51:43;2.50;1.00
31975;DHT22;18500;43.618;1.474;2023-03-05T02:54:08;2.40;1.00
31975;DHT22;18500;43.618;1.474;2023-03-05T02:56:34;2.40;1.00
31975;DHT22;18500;43.618;1.474;2023-03-05T02:59:02;2.30;1.00
31975;DHT22;18500;43.618;1.474;2023-03-05T03:01:28;2.20;1.00
31975;DHT22;18500;43.618;1.474;2023-03-05T03:03:54;2.20;1.00
31975;DHT22;18500;43.618;1.474;2023-03-05T03:06:20;2.10;1.00
31975;DHT22;18500;43.618;1.474;2023-03-05T03:08:45;2.00;1.00
31975;DHT22;18500;43.618;1.474;2023-03-05T03:11:11;2.00;1.00
31975;DHT22;18500;43.618;1.474;2023-03-05T03:13:38;2.00;1.00
31975;DHT22;18500;43.618;1.474;2023-03-05T03:16:09;2.00;1.00
31975;DHT22;18500;43.618;1.474;2023-03-05T03:18:36;2.00;1.00
31975;DHT22;18500;43.618;1.474;2023-03-05T03:21:02;1.90;1.00
31975;DHT22;18500;43.618;1.474;2023-03-05T03:23:28;1.90;1.00
31975;DHT22;18500;43.618;1.474;2023-03-05T03:25:54;1.80;1.00
31975;DHT22;18500;43.618;1.474;2023-03-05T03:28:20;1.80;1.00
31975;DHT22;18500;43.618;1.474;2023-03-05T03:30:45;1.80;1.00
31975;DHT22;18500;43.618;1.474;2023-03-05T03:33:11;1.80;1.00
31975;DHT22;18500;43.618;1.474;2023-03-05T03:35:37;1.80;1.00
31975;DHT22;18500;43.618;1.474;2023-03-05T03:38:03;1.70;1.00
31975;DHT22;18500;43.618;1.474;2023-03-05T03:40:29;1.70;1.00
31975;DHT22;18500;43.618;1.474;2023-03-05T03:42:54;1.70;1.00
31975;DHT22;18500;43.618;1.474;2023-03-05T03:45:20;1.70;1.00
31975;DHT22;18500;43.618;1.474;2023-03-05T03:47:50;1.50;1.00
31975;DHT22;18500;43.618;1.474;2023-03-05T03:50:17;1.40;1.00
31975;DHT22;18500;43.618;1.474;2023-03-05T03:52:43;1.30;1.00
31975;DHT22;18500;43.618;1.474;2023-03-05T03:55:09;1.10;1.00
31975;DHT22;18500;43.618;1.474;2023-03-05T03:57:35;1.00;1.00
31975;DHT22;18500;43.618;1.474;2023-03-05T04:00:03;1.00;1.00
31975;DHT22;18500;43.618;1.474;2023-03-05T04:02:31;1.00;1.00
31975;DHT22;18500;43.618;1.474;2023-03-05T04:04:57;0.90;1.00
31975;DHT22;18500;43.618;1.474;2023-03-05T04:07:23;0.90;1.00
31975;DHT22;18500;43.618;1.474;2023-03-05T04:09:48;0.90;1.00
31975;DHT22;18500;43.618;1.474;2023-03-05T04:12:14;0.90;1.00
31975;DHT22;18500;43.618;1.474;2023-03-05T04:14:46;0.90;1.00
31975;DHT22;18500;43.618;1.474;2023-03-05T04:17:13;0.90;1.00
31975;DHT22;18500;43.618;1.474;2023-03-05T04:19:39;1.00;1.00
31975;DHT22;18500;43.618;1.474;2023-03-05T04:22:15;1.00;1.00
31975;DHT22;18500;43.618;1.474;2023-03-05T04:24:41;1.00;1.00
31975;DHT22;18500;43.618;1.474;2023-03-05T04:27:07;0.90;1.00
31975;DHT22;18500;43.618;1.474;2023-03-05T04:29:32;0.80;1.00
31975;DHT22;18500;43.618;1.474;2023-03-05T04:31:58;0.80;1.00
31975;DHT22;18500;43.618;1.474;2023-03-05T04:34:24;0.70;1.00
31975;DHT22;18500;43.618;1.474;2023-03-05T04:36:49;0.60;1.00
31975;DHT22;18500;43.618;1.474;2023-03-05T04:39:15;0.60;1.00
31975;DHT22;18500;43.618;1.474;2023-03-05T04:41:41;0.50;1.00
31975;DHT22;18500;43.618;1.474;2023-03-05T04:44:07;0.50;1.00
31975;DHT22;18500;43.618;1.474;2023-03-05T04:46:33;0.50;1.00
31975;DHT22;18500;43.618;1.474;2023-03-05T04:48:58;0.60;1.00
31975;DHT22;18500;43.618;1.474;2023-03-05T04:51:24;0.60;1.00
31975;DHT22;18500;43.618;1.474;2023-03-05T04:53:50;0.70;1.00
31975;DHT22;18500;43.618;1.474;2023-03-05T04:56:16;0.70;1.00
31975;DHT22;18500;43.618;1.474;2023-03-05T04:58:41;0.70;1.00
31975;DHT22;18500;43.618;1.474;2023-03-05T05:01:07;0.70;1.00
31975;DHT22;18500;43.618;1.474;2023-03-05T05:03:33;0.60;1.00
31975;DHT22;18500;43.618;1.474;2023-03-05T05:05:59;0.70;1.00
31975;DHT22;18500;43.618;1.474;2023-03-05T05:08:26;0.60;1.00
31975;DHT22;18500;43.618;1.474;2023-03-05T05:11:13;0.70;1.00
31975;DHT22;18500;43.618;1.474;2023-03-05T05:13:38;0.70;1.00
31975;DHT22;18500;43.618;1.474;2023-03-05T05:16:07;0.60;1.00
31975;DHT22;18500;43.618;1.474;2023-03-05T05:18:33;0.60;1.00
31975;DHT22;18500;43.618;1.474;2023-03-05T05:20:59;0.60;1.00
31975;DHT22;18500;43.618;1.474;2023-03-05T05:23:25;0.60;1.00
31975;DHT22;18500;43.618;1.474;2023-03-05T05:25:58;0.60;1.00
31975;DHT22;18500;43.618;1.474;2023-03-05T05:28:24;0.60;1.00
31975;DHT22;18500;43.618;1.474;2023-03-05T05:30:50;0.50;1.00
31975;DHT22;18500;43.618;1.474;2023-03-05T05:33:16;0.50;1.00
31975;DHT22;18500;43.618;1.474;2023-03-05T05:35:41;0.50;1.00
31975;DHT22;18500;43.618;1.474;2023-03-05T05:38:07;0.40;1.00
31975;DHT22;18500;43.618;1.474;2023-03-05T05:40:32;0.50;1.00
31975;DHT22;18500;43.618;1.474;2023-03-05T05:42:58;0.50;1.00
31975;DHT22;18500;43.618;1.474;2023-03-05T05:45:24;0.50;1.00
31975;DHT22;18500;43.618;1.474;2023-03-05T05:47:49;0.40;1.00
31975;DHT22;18500;43.618;1.474;2023-03-05T05:50:16;0.40;1.00
31975;DHT22;18500;43.618;1.474;2023-03-05T05:52:41;0.40;1.00
31975;DHT22;18500;43.618;1.474;2023-03-05T05:55:08;0.20;1.00
31975;DHT22;18500;43.618;1.474;2023-03-05T05:57:33;0.10;1.00
31975;DHT22;18500;43.618;1.474;2023-03-05T05:59:59;0.10;1.00
31975;DHT22;18500;43.618;1.474;2023-03-05T06:02:25;0.00;1.00
31975;DHT22;18500;43.618;1.474;2023-03-05T06:04:52;-0.10;1.00
31975;DHT22;18500;43.618;1.474;2023-03-05T06:07:17;-0.10;1.00
31975;DHT22;18500;43.618;1.474;2023-03-05T06:09:43;-0.20;1.00
31975;DHT22;18500;43.618;1.474;2023-03-05T06:12:09;-0.20;1.00
31975;DHT22;18500;43.618;1.474;2023-03-05T06:14:35;-0.20;1.00
31975;DHT22;18500;43.618;1.474;2023-03-05T06:17:01;-0.30;1.00
31975;DHT22;18500;43.618;1.474;2023-03-05T06:19:27;-0.30;1.00
31975;DHT22;18500;43.618;1.474;2023-03-05T06:21:52;-0.30;1.00
31975;DHT22;18500;43.618;1.474;2023-03-05T06:24:18;-0.30;1.00
31975;DHT22;18500;43.618;1.474;2023-03-05T06:26:44;-0.30;1.00
31975;DHT22;18500;43.618;1.474;2023-03-05T06:29:11;-0.40;1.00
31975;DHT22;18500;43.618;1.474;2023-03-05T06:31:37;-0.40;1.00
31975;DHT22;18500;43.618;1.474;2023-03-05T06:34:03;-0.40;1.00
31975;DHT22;18500;43.618;1.474;2023-03-05T06:36:30;-0.40;1.00
31975;DHT22;18500;43.618;1.474;2023-03-05T06:38:56;-0.50;1.00
31975;DHT22;18500;43.618;1.474;2023-03-05T06:41:25;-0.50;1.00
31975;DHT22;18500;43.618;1.474;2023-03-05T06:43:52;-0.50;1.00
31975;DHT22;18500;43.618;1.474;2023-03-05T06:46:20;-0.50;1.00
31975;DHT22;18500;43.618;1.474;2023-03-05T06:48:47;-0.50;1.00
31975;DHT22;18500;43.618;1.474;2023-03-05T06:51:24;-0.40;1.00
31975;DHT22;18500;43.618;1.474;2023-03-05T06:53:51;-0.40;1.00
31975;DHT22;18500;43.618;1.474;2023-03-05T06:56:18;-0.30;1.00
31975;DHT22;18500;43.618;1.474;2023-03-05T06:58:45;-0.30;1.00
31975;DHT22;18500;43.618;1.474;2023-03-05T07:01:13;-0.30;1.00
31975;DHT22;18500;43.618;1.474;2023-03-05T07:03:40;-0.30;1.00
31975;DHT22;18500;43.618;1.474;2023-03-05T07:06:08;-0.40;1.00
31975;DHT22;18500;43.618;1.474;2023-03-05T07:08:34;-0.30;1.00
31975;DHT22;18500;43.618;1.474;2023-03-05T07:11:00;-0.30;1.00
31975;DHT22;18500;43.618;1.474;2023-03-05T07:13:26;-0.20;1.00
31975;DHT22;18500;43.618;1.474;2023-03-05T07:15:52;0.00;1.00
31975;DHT22;18500;43.618;1.474;2023-03-05T07:18:18;0.20;1.00
31975;DHT22;18500;43.618;1.474;2023-03-05T07:20:44;0.40;1.00
31975;DHT22;18500;43.618;1.474;2023-03-05T07:23:10;0.50;1.00
31975;DHT22;18500;43.618;1.474;2023-03-05T07:25:36;0.70;1.00
31975;DHT22;18500;43.618;1.474;2023-03-05T07:28:03;0.80;1.00
31975;DHT22;18500;43.618;1.474;2023-03-05T07:30:30;0.80;1.00
31975;DHT22;18500;43.618;1.474;2023-03-05T07:32:56;0.90;1.00
31975;DHT22;18500;43.618;1.474;2023-03-05T07:35:21;1.00;1.00
31975;DHT22;18500;43.618;1.474;2023-03-05T07:37:49;1.10;1.00
31975;DHT22;18500;43.618;1.474;2023-03-05T07:40:15;1.20;1.00
31975;DHT22;18500;43.618;1.474;2023-03-05T07:42:41;1.20;1.00
31975;DHT22;18500;43.618;1.474;2023-03-05T07:45:07;1.20;1.00
31975;DHT22;18500;43.618;1.474;2023-03-05T07:47:33;1.20;1.00
31975;DHT22;18500;43.618;1.474;2023-03-05T07:49:59;1.30;1.00
31975;DHT22;18500;43.618;1.474;2023-03-05T07:52:24;1.30;1.00
31975;DHT22;18500;43.618;1.474;2023-03-05T07:54:50;1.30;1.00
31975;DHT22;18500;43.618;1.474;2023-03-05T07:57:16;1.30;1.00
31975;DHT22;18500;43.618;1.474;2023-03-05T07:59:41;1.40;1.00
31975;DHT22;18500;43.618;1.474;2023-03-05T08:02:10;1.40;1.00
31975;DHT22;18500;43.618;1.474;2023-03-05T08:04:36;1.50;1.00
31975;DHT22;18500;43.618;1.474;2023-03-05T08:07:03;1.60;1.00
31975;DHT22;18500;43.618;1.474;2023-03-05T08:09:29;1.60;1.00
31975;DHT22;18500;43.618;1.474;2023-03-05T08:11:54;1.70;1.00
31975;DHT22;18500;43.618;1.474;2023-03-05T08:14:20;1.80;1.00
31975;DHT22;18500;43.618;1.474;2023-03-05T08:16:46;1.80;1.00
31975;DHT22;18500;43.618;1.474;2023-03-05T08:19:16;2.00;1.00
31975;DHT22;18500;43.618;1.474;2023-03-05T08:21:42;2.10;1.00
31975;DHT22;18500;43.618;1.474;2023-03-05T08:24:09;2.20;1.00
31975;DHT22;18500;43.618;1.474;2023-03-05T08:26:36;2.40;1.00
31975;DHT22;18500;43.618;1.474;2023-03-05T08:29:03;2.40;1.00
31975;DHT22;18500;43.618;1.474;2023-03-05T08:31:29;2.50;1.00
31975;DHT22;18500;43.618;1.474;2023-03-05T08:33:56;2.60;1.00
31975;DHT22;18500;43.618;1.474;2023-03-05T08:36:21;2.70;1.00
31975;DHT22;18500;43.618;1.474;2023-03-05T08:38:47;2.80;1.00
31975;DHT22;18500;43.618;1.474;2023-03-05T08:41:17;3.00;1.00
31975;DHT22;18500;43.618;1.474;2023-03-05T08:43:43;3.10;1.00
31975;DHT22;18500;43.618;1.474;2023-03-05T08:46:11;3.20;1.00
31975;DHT22;18500;43.618;1.474;2023-03-05T08:48:37;3.50;1.00
31975;DHT22;18500;43.618;1.474;2023-03-05T08:51:17;3.60;1.00
31975;DHT22;18500;43.618;1.474;2023-03-05T08:53:44;3.80;1.00
31975;DHT22;18500;43.618;1.474;2023-03-05T08:56:10;4.00;1.00
31975;DHT22;18500;43.618;1.474;2023-03-05T08:58:36;4.10;1.00
31975;DHT22;18500;43.618;1.474;2023-03-05T09:01:02;4.30;1.00
31975;DHT22;18500;43.618;1.474;2023-03-05T09:03:28;4.60;1.00
31975;DHT22;18500;43.618;1.474;2023-03-05T09:05:58;4.90;1.00
31975;DHT22;18500;43.618;1.474;2023-03-05T09:08:24;5.00;1.00
31975;DHT22;18500;43.618;1.474;2023-03-05T09:10:49;5.10;1.00
31975;DHT22;18500;43.618;1.474;2023-03-05T09:13:15;5.10;1.00
31975;DHT22;18500;43.618;1.474;2023-03-05T09:15:41;5.30;1.00
31975;DHT22;18500;43.618;1.474;2023-03-05T09:18:06;5.40;1.00
31975;DHT22;18500;43.618;1.474;2023-03-05T09:20:34;5.50;1.00
31975;DHT22;18500;43.618;1.474;2023-03-05T09:23:01;5.60;1.00
31975;DHT22;18500;43.618;1.474;2023-03-05T09:25:26;5.50;1.00
31975;DHT22;18500;43.618;1.474;2023-03-05T09:27:52;5.60;1.00
31975;DHT22;18500;43.618;1.474;2023-03-05T09:30:19;5.90;1.00
31975;DHT22;18500;43.618;1.474;2023-03-05T09:32:44;5.90;1.00
31975;DHT22;18500;43.618;1.474;2023-03-05T09:35:10;6.00;1.00
31975;DHT22;18500;43.618;1.474;2023-03-05T09:37:36;6.30;1.00
31975;DHT22;18500;43.618;1.474;2023-03-05T09:40:02;6.30;1.00
31975;DHT22;18500;43.618;1.474;2023-03-05T09:42:42;6.30;1.00
31975;DHT22;18500;43.618;1.474;2023-03-05T09:45:34;6.40;1.00
31975;DHT22;18500;43.618;1.474;2023-03-05T09:48:41;6.50;1.00
31975;DHT22;18500;43.618;1.474;2023-03-05T09:51:20;6.60;1.00
31975;DHT22;18500;43.618;1.474;2023-03-05T09:54:05;6.80;1.00
31975;DHT22;18500;43.618;1.474;2023-03-05T09:56:38;6.90;1.00
31975;DHT22;18500;43.618;1.474;2023-03-05T09:59:20;7.00;1.00
31975;DHT22;18500;43.618;1.474;2023-03-05T10:01:48;6.70;1.00
31975;DHT22;18500;43.618;1.474;2023-03-05T10:07:05;6.60;1.00
31975;DHT22;18500;43.618;1.474;2023-03-05T10:12:19;7.20;1.00
31975;DHT22;18500;43.618;1.474;2023-03-05T10:14:49;7.10;1.00
31975;DHT22;18500;43.618;1.474;2023-03-05T10:25:53;7.30;1.00
31975;DHT22;18500;43.618;1.474;2023-03-05T10:34:26;7.60;1.00
31975;DHT22;18500;43.618;1.474;2023-03-05T10:45:15;8.10;1.00
31975;DHT22;18500;43.618;1.474;2023-03-05T10:50:30;8.10;1.00
31975;DHT22;18500;43.618;1.474;2023-03-05T10:53:24;8.10;1.00
31975;DHT22;18500;43.618;1.474;2023-03-05T10:55:51;8.40;1.00
31975;DHT22;18500;43.618;1.474;2023-03-05T10:58:21;8.70;1.00
31975;DHT22;18500;43.618;1.474;2023-03-05T11:01:23;8.90;1.00
31975;DHT22;18500;43.618;1.474;2023-03-05T11:03:59;9.00;1.00
31975;DHT22;18500;43.618;1.474;2023-03-05T11:06:40;9.20;1.00
31975;DHT22;18500;43.618;1.474;2023-03-05T11:11:37;9.60;1.00
31975;DHT22;18500;43.618;1.474;2023-03-05T11:14:03;9.60;1.00
31975;DHT22;18500;43.618;1.474;2023-03-05T11:16:44;9.70;1.00
31975;DHT22;18500;43.618;1.474;2023-03-05T11:19:20;9.80;1.00
31975;DHT22;18500;43.618;1.474;2023-03-05T11:24:35;10.10;1.00
31975;DHT22;18500;43.618;1.474;2023-03-05T11:27:19;10.20;1.00
31975;DHT22;18500;43.618;1.474;2023-03-05T11:29:49;10.30;1.00
31975;DHT22;18500;43.618;1.474;2023-03-05T11:32:26;10.30;1.00
31975;DHT22;18500;43.618;1.474;2023-03-05T11:34:53;10.40;1.00
31975;DHT22;18500;43.618;1.474;2023-03-05T11:37:30;10.60;1.00
31975;DHT22;18500;43.618;1.474;2023-03-05T11:40:21;10.40;1.00
31975;DHT22;18500;43.618;1.474;2023-03-05T11:42:52;10.50;1.00
31975;DHT22;18500;43.618;1.474;2023-03-05T11:45:19;10.30;1.00
31975;DHT22;18500;43.618;1.474;2023-03-05T11:47:48;10.20;1.00
31975;DHT22;18500;43.618;1.474;2023-03-05T11:53:13;10.60;1.00
31975;DHT22;18500;43.618;1.474;2023-03-05T11:55:51;10.40;1.00
31975;DHT22;18500;43.618;1.474;2023-03-05T12:01:02;10.40;1.00
31975;DHT22;18500;43.618;1.474;2023-03-05T12:03:35;10.50;1.00
31975;DHT22;18500;43.618;1.474;2023-03-05T12:06:26;10.60;1.00
31975;DHT22;18500;43.618;1.474;2023-03-05T12:08:54;10.80;1.00
31975;DHT22;18500;43.618;1.474;2023-03-05T12:11:32;11.00;1.00
31975;DHT22;18500;43.618;1.474;2023-03-05T12:14:21;10.50;1.00
31975;DHT22;18500;43.618;1.474;2023-03-05T12:16:57;10.90;1.00
31975;DHT22;18500;43.618;1.474;2023-03-05T12:19:45;11.20;1.00
31975;DHT22;18500;43.618;1.474;2023-03-05T12:22:21;11.50;1.00
31975;DHT22;18500;43.618;1.474;2023-03-05T12:24:47;11.70;1.00
31975;DHT22;18500;43.618;1.474;2023-03-05T12:27:15;11.60;1.00
31975;DHT22;18500;43.618;1.474;2023-03-05T12:35:20;11.30;1.00
31975;DHT22;18500;43.618;1.474;2023-03-05T12:42:58;14.10;1.00
31975;DHT22;18500;43.618;1.474;2023-03-05T12:45:26;16.50;1.00
31975;DHT22;18500;43.618;1.474;2023-03-05T13:00:52;18.30;1.00
31975;DHT22;18500;43.618;1.474;2023-03-05T13:03:26;19.80;1.00
31975;DHT22;18500;43.618;1.474;2023-03-05T13:05:55;21.30;1.00
31975;DHT22;18500;43.618;1.474;2023-03-05T13:08:26;20.60;1.00
31975;DHT22;18500;43.618;1.474;2023-03-05T13:13:23;21.50;1.00
31975;DHT22;18500;43.618;1.474;2023-03-05T13:15:50;21.10;1.00
31975;DHT22;18500;43.618;1.474;2023-03-05T13:18:20;19.30;1.00
31975;DHT22;18500;43.618;1.474;2023-03-05T13:20:47;18.50;1.00
31975;DHT22;18500;43.618;1.474;2023-03-05T13:23:22;19.60;1.00
31975;DHT22;18500;43.618;1.474;2023-03-05T13:26:14;21.80;1.00
31975;DHT22;18500;43.618;1.474;2023-03-05T13:28:43;23.50;1.00
31975;DHT22;18500;43.618;1.474;2023-03-05T13:31:18;24.50;1.00
31975;DHT22;18500;43.618;1.474;2023-03-05T13:37:03;19.80;1.00
31975;DHT22;18500;43.618;1.474;2023-03-05T13:42:17;15.30;1.00
31975;DHT22;18500;43.618;1.474;2023-03-05T13:44:53;15.00;1.00
31975;DHT22;18500;43.618;1.474;2023-03-05T13:47:21;14.70;1.00
31975;DHT22;18500;43.618;1.474;2023-03-05T13:49:55;14.40;1.00
31975;DHT22;18500;43.618;1.474;2023-03-05T13:52:29;14.30;1.00
31975;DHT22;18500;43.618;1.474;2023-03-05T13:54:56;14.20;1.00
31975;DHT22;18500;43.618;1.474;2023-03-05T13:57:44;14.20;1.00
31975;DHT22;18500;43.618;1.474;2023-03-05T14:00:30;14.10;1.00
31975;DHT22;18500;43.618;1.474;2023-03-05T14:02:59;13.90;1.00
31975;DHT22;18500;43.618;1.474;2023-03-05T14:05:26;13.90;1.00
31975;DHT22;18500;43.618;1.474;2023-03-05T14:07:52;13.60;1.00
31975;DHT22;18500;43.618;1.474;2023-03-05T14:10:37;13.80;1.00
31975;DHT22;18500;43.618;1.474;2023-03-05T14:13:13;14.00;1.00
31975;DHT22;18500;43.618;1.474;2023-03-05T14:15:41;14.10;1.00
31975;DHT22;18500;43.618;1.474;2023-03-05T14:20:35;13.80;1.00
31975;DHT22;18500;43.618;1.474;2023-03-05T14:25:50;13.80;1.00
31975;DHT22;18500;43.618;1.474;2023-03-05T14:30:49;13.70;1.00
31975;DHT22;18500;43.618;1.474;2023-03-05T14:33:25;13.50;1.00
31975;DHT22;18500;43.618;1.474;2023-03-05T14:35:52;13.60;1.00
31975;DHT22;18500;43.618;1.474;2023-03-05T14:38:24;13.30;1.00
31975;DHT22;18500;43.618;1.474;2023-03-05T14:40:50;13.40;1.00
31975;DHT22;18500;43.618;1.474;2023-03-05T14:43:16;13.50;1.00
31975;DHT22;18500;43.618;1.474;2023-03-05T14:45:42;13.60;1.00
31975;DHT22;18500;43.618;1.474;2023-03-05T14:48:11;13.30;1.00
31975;DHT22;18500;43.618;1.474;2023-03-05T14:50:44;13.30;1.00
31975;DHT22;18500;43.618;1.474;2023-03-05T14:55:47;13.40;1.00
31975;DHT22;18500;43.618;1.474;2023-03-05T14:58:20;13.40;1.00
31975;DHT22;18500;43.618;1.474;2023-03-05T15:00:47;13.40;1.00
31975;DHT22;18500;43.618;1.474;2023-03-05T15:03:14;13.20;1.00
31975;DHT22;18500;43.618;1.474;2023-03-05T15:05:41;13.00;1.00
31975;DHT22;18500;43.618;1.474;2023-03-05T15:08:34;13.00;1.00
31975;DHT22;18500;43.618;1.474;2023-03-05T15:11:00;13.10;1.00
31975;DHT22;18500;43.618;1.474;2023-03-05T15:13:26;12.90;1.00
31975;DHT22;18500;43.618;1.474;2023-03-05T15:15:52;12.90;1.00
31975;DHT22;18500;43.618;1.474;2023-03-05T15:18:19;12.80;1.00
31975;DHT22;18500;43.618;1.474;2023-03-05T15:20:46;12.90;1.00
31975;DHT22;18500;43.618;1.474;2023-03-05T15:23:17;12.90;1.00
31975;DHT22;18500;43.618;1.474;2023-03-05T15:25:43;13.00;1.00
31975;DHT22;18500;43.618;1.474;2023-03-05T15:28:09;13.10;1.00
31975;DHT22;18500;43.618;1.474;2023-03-05T15:30:37;13.20;1.00
31975;DHT22;18500;43.618;1.474;2023-03-05T15:33:06;13.30;1.00
31975;DHT22;18500;43.618;1.474;2023-03-05T15:35:32;13.40;1.00
31975;DHT22;18500;43.618;1.474;2023-03-05T15:37:58;13.10;1.00
31975;DHT22;18500;43.618;1.474;2023-03-05T15:40:24;12.80;1.00
31975;DHT22;18500;43.618;1.474;2023-03-05T15:42:52;12.70;1.00
31975;DHT22;18500;43.618;1.474;2023-03-05T15:45:18;12.70;1.00
31975;DHT22;18500;43.618;1.474;2023-03-05T15:47:46;12.80;1.00
31975;DHT22;18500;43.618;1.474;2023-03-05T15:50:12;12.80;1.00
31975;DHT22;18500;43.618;1.474;2023-03-05T15:52:38;13.00;1.00
31975;DHT22;18500;43.618;1.474;2023-03-05T15:55:04;13.00;1.00
31975;DHT22;18500;43.618;1.474;2023-03-05T15:57:29;12.90;1.00
31975;DHT22;18500;43.618;1.474;2023-03-05T15:59:57;13.00;1.00
31975;DHT22;18500;43.618;1.474;2023-03-05T16:02:23;13.00;1.00
31975;DHT22;18500;43.618;1.474;2023-03-05T16:04:49;13.00;1.00
31975;DHT22;18500;43.618;1.474;2023-03-05T16:07:15;12.90;1.00
31975;DHT22;18500;43.618;1.474;2023-03-05T16:09:44;12.60;1.00
31975;DHT22;18500;43.618;1.474;2023-03-05T16:12:14;12.60;1.00
31975;DHT22;18500;43.618;1.474;2023-03-05T16:14:42;12.40;1.00
31975;DHT22;18500;43.618;1.474;2023-03-05T16:17:08;12.30;1.00
31975;DHT22;18500;43.618;1.474;2023-03-05T16:19:36;12.30;1.00
31975;DHT22;18500;43.618;1.474;2023-03-05T16:22:04;12.20;1.00
31975;DHT22;18500;43.618;1.474;2023-03-05T16:24:30;12.20;1.00
31975;DHT22;18500;43.618;1.474;2023-03-05T16:26:58;12.10;1.00
31975;DHT22;18500;43.618;1.474;2023-03-05T16:29:24;12.10;1.00
31975;DHT22;18500;43.618;1.474;2023-03-05T16:31:50;12.10;1.00
31975;DHT22;18500;43.618;1.474;2023-03-05T16:34:16;12.10;1.00
31975;DHT22;18500;43.618;1.474;2023-03-05T16:36:48;12.00;1.00
31975;DHT22;18500;43.618;1.474;2023-03-05T16:39:15;11.90;1.00
31975;DHT22;18500;43.618;1.474;2023-03-05T16:41:40;11.70;1.00
31975;DHT22;18500;43.618;1.474;2023-03-05T16:44:06;11.50;1.00
31975;DHT22;18500;43.618;1.474;2023-03-05T16:46:32;11.30;1.00
31975;DHT22;18500;43.618;1.474;2023-03-05T16:48:58;11.40;1.00
31975;DHT22;18500;43.618;1.474;2023-03-05T16:51:23;11.40;1.00
31975;DHT22;18500;43.618;1.474;2023-03-05T16:53:49;11.30;1.00
31975;DHT22;18500;43.618;1.474;2023-03-05T16:56:15;11.40;1.00
31975;DHT22;18500;43.618;1.474;2023-03-05T16:58:41;11.50;1.00
31975;DHT22;18500;43.618;1.474;2023-03-05T17:01:15;11.40;1.00
31975;DHT22;18500;43.618;1.474;2023-03-05T17:03:41;11.30;1.00
31975;DHT22;18500;43.618;1.474;2023-03-05T17:06:14;11.00;1.00
31975;DHT22;18500;43.618;1.474;2023-03-05T17:08:41;10.80;1.00
31975;DHT22;18500;43.618;1.474;2023-03-05T17:11:07;10.70;1.00
31975;DHT22;18500;43.618;1.474;2023-03-05T17:13:34;10.50;1.00
31975;DHT22;18500;43.618;1.474;2023-03-05T17:16:00;10.50;1.00
31975;DHT22;18500;43.618;1.474;2023-03-05T17:18:26;10.80;1.00
31975;DHT22;18500;43.618;1.474;2023-03-05T17:20:52;10.80;1.00
31975;DHT22;18500;43.618;1.474;2023-03-05T17:23:18;10.80;1.00
31975;DHT22;18500;43.618;1.474;2023-03-05T17:25:44;10.80;1.00
31975;DHT22;18500;43.618;1.474;2023-03-05T17:28:10;10.80;1.00
31975;DHT22;18500;43.618;1.474;2023-03-05T17:30:36;10.70;1.00